Time;durP1;ratioP1;P1;durP2;ratioP2;P2;SDS_P1;SDS_P2;PMS_P1;PMS_P2;Temp;Humidity;BMP_temperature;BMP_pressure;BME280_temperature;BME280_humidity;BME280_pressure;Samples;Min_cycle;Max_cycle;Signal;HPM_P1;HPM_P2
2024/04/25 00:00:46;;;;;;;5.33;2.00;;;;;;;;;;5501735;26;20244;-71
2024/04/25 00:03:12;;;;;;;3.33;2.07;;;;;;;;;;5519847;25;20690;-71
2024/04/25 00:05:39;;;;;;;2.03;1.70;;;;;;;;;;5514970;25;20243;-72
2024/04/25 00:08:06;;;;;;;4.83;2.27;;;;;;;;;;5518606;25;20240;-72
2024/04/25 00:10:32;;;;;;;3.20;2.10;;;;;;;;;;5517342;25;20231;-71
2024/04/25 00:12:58;;;;;;;3.80;1.80;;;;;;;;;;5516202;25;20324;-71
2024/04/25 00:15:23;;;;;;;3.03;2.07;;;;;;;;;;5508836;25;20236;-71
2024/04/25 00:17:48;;;;;;;3.23;1.60;;;;;;;;;;5519153;26;20275;-72
2024/04/25 00:20:14;;;;;;;4.97;1.80;;;;;;;;;;5488392;25;20338;-71
2024/04/25 00:22:39;;;;;;;4.30;1.47;;;;;;;;;;5528356;25;20678;-73
2024/04/25 00:25:05;;;;;;;3.67;1.57;;;;;;;;;;5517545;25;20607;-72
2024/04/25 00:27:30;;;;;;;3.80;1.50;;;;;;;;;;5518945;25;20706;-72
2024/04/25 00:29:57;;;;;;;5.43;1.47;;;;;;;;;;5519098;26;20240;-71
2024/04/25 00:32:22;;;;;;;3.70;1.60;;;;;;;;;;5519738;25;20307;-71
2024/04/25 00:34:48;;;;;;;2.90;1.50;;;;;;;;;;5507188;25;20586;-71
2024/04/25 00:37:13;;;;;;;3.60;1.57;;;;;;;;;;5517494;25;20247;-72
2024/04/25 00:39:39;;;;;;;3.63;1.57;;;;;;;;;;5507217;25;20312;-73
2024/04/25 00:42:04;;;;;;;4.30;1.40;;;;;;;;;;5517618;25;20252;-70
2024/04/25 00:44:29;;;;;;;5.37;1.40;;;;;;;;;;5513762;25;20256;-71
2024/04/25 00:46:56;;;;;;;4.07;1.57;;;;;;;;;;5521607;25;20351;-71
2024/04/25 00:49:22;;;;;;;3.87;1.50;;;;;;;;;;5517491;25;20264;-71
2024/04/25 00:51:50;;;;;;;6.00;1.50;;;;;;;;;;5518775;25;20837;-71
2024/04/25 00:54:16;;;;;;;4.17;1.40;;;;;;;;;;5519790;25;20228;-72
2024/04/25 00:56:42;;;;;;;3.90;1.73;;;;;;;;;;5538800;25;20423;-71
2024/04/25 00:59:11;;;;;;;3.90;1.53;;;;;;;;;;5538307;25;20311;-71
2024/04/25 01:01:41;;;;;;;5.40;1.10;;;;;;;;;;5520855;25;20232;-72
2024/04/25 01:04:07;;;;;;;2.43;1.30;;;;;;;;;;5518842;25;20922;-71
2024/04/25 01:06:34;;;;;;;3.07;0.97;;;;;;;;;;5506290;25;20286;-72
2024/04/25 01:09:00;;;;;;;2.70;0.93;;;;;;;;;;5485781;25;20265;-71
2024/04/25 01:11:27;;;;;;;3.43;1.30;;;;;;;;;;5520585;26;20228;-72
2024/04/25 01:13:54;;;;;;;4.47;1.30;;;;;;;;;;5518241;25;20271;-71
2024/04/25 01:16:19;;;;;;;4.50;1.07;;;;;;;;;;5495121;25;20783;-71
2024/04/25 01:18:45;;;;;;;3.87;1.00;;;;;;;;;;5520768;25;20235;-71
2024/04/25 01:21:10;;;;;;;2.67;1.00;;;;;;;;;;5510641;25;20268;-74
2024/04/25 01:23:38;;;;;;;5.27;1.37;;;;;;;;;;5501700;25;20276;-71
2024/04/25 01:26:09;;;;;;;5.70;1.00;;;;;;;;;;5486012;25;20720;-71
2024/04/25 01:28:36;;;;;;;4.00;1.13;;;;;;;;;;5487682;26;20714;-71
2024/04/25 01:31:03;;;;;;;5.27;1.20;;;;;;;;;;5516197;25;20277;-71
2024/04/25 01:33:32;;;;;;;4.40;0.97;;;;;;;;;;5485533;26;20308;-72
2024/04/25 01:35:58;;;;;;;5.93;0.80;;;;;;;;;;5520570;25;20311;-72
2024/04/25 01:38:24;;;;;;;2.70;1.03;;;;;;;;;;5496184;25;20247;-71
2024/04/25 01:40:50;;;;;;;3.83;1.10;;;;;;;;;;5517021;25;20287;-72
2024/04/25 01:43:16;;;;;;;2.70;1.00;;;;;;;;;;5506166;25;20327;-71
2024/04/25 01:45:42;;;;;;;4.60;1.20;;;;;;;;;;5519946;25;20299;-71
2024/04/25 01:48:07;;;;;;;4.17;0.97;;;;;;;;;;5519033;25;20227;-71
2024/04/25 01:50:32;;;;;;;4.50;1.20;;;;;;;;;;5510108;26;20236;-70
2024/04/25 01:52:58;;;;;;;5.23;0.97;;;;;;;;;;5519269;25;20270;-71
2024/04/25 01:55:25;;;;;;;1.63;0.77;;;;;;;;;;5516214;25;20513;-71
2024/04/25 01:57:51;;;;;;;6.10;1.10;;;;;;;;;;5516864;25;20236;-71
2024/04/25 02:00:17;;;;;;;3.57;1.10;;;;;;;;;;5510758;25;20247;-71
2024/04/25 02:02:42;;;;;;;1.93;0.80;;;;;;;;;;5520327;25;20808;-70
2024/04/25 02:05:09;;;;;;;6.73;1.10;;;;;;;;;;5518074;25;20399;-71
2024/04/25 02:07:34;;;;;;;5.33;1.00;;;;;;;;;;5527904;25;20282;-71
2024/04/25 02:10:00;;;;;;;6.37;1.03;;;;;;;;;;5519255;25;20243;-71
2024/04/25 02:12:25;;;;;;;2.47;0.80;;;;;;;;;;5517610;25;20287;-71
2024/04/25 02:14:51;;;;;;;3.33;1.03;;;;;;;;;;5520111;25;20239;-71
2024/04/25 02:17:16;;;;;;;5.83;1.03;;;;;;;;;;5519069;25;20278;-72
2024/04/25 02:19:42;;;;;;;6.17;0.90;;;;;;;;;;5500958;26;20318;-70
2024/04/25 02:27:32;;;;;;;5.03;1.43;;;;;;;;;;5516550;25;20311;-71
2024/04/25 02:29:58;;;;;;;4.82;1.00;;;;;;;;;;5516632;25;20708;-71
2024/04/25 02:32:23;;;;;;;5.20;1.00;;;;;;;;;;5516984;25;20790;-71
2024/04/25 02:34:49;;;;;;;4.03;1.00;;;;;;;;;;5510333;25;20274;-71
2024/04/25 02:37:14;;;;;;;3.37;0.87;;;;;;;;;;5517275;25;20367;-71
2024/04/25 02:39:40;;;;;;;5.20;0.80;;;;;;;;;;5516841;25;20258;-71
2024/04/25 02:42:05;;;;;;;6.77;1.83;;;;;;;;;;5517578;25;20231;-71
2024/04/25 02:44:31;;;;;;;5.23;1.20;;;;;;;;;;5518346;25;20232;-70
2024/04/25 02:46:56;;;;;;;4.77;1.10;;;;;;;;;;5484672;26;20346;-71
2024/04/25 02:49:21;;;;;;;6.87;1.00;;;;;;;;;;5514964;25;20251;-70
2024/04/25 02:51:47;;;;;;;5.27;0.90;;;;;;;;;;5517615;25;20240;-70
2024/04/25 02:54:12;;;;;;;6.93;1.03;;;;;;;;;;5517332;25;20294;-71
2024/04/25 02:56:38;;;;;;;5.33;0.80;;;;;;;;;;5518095;25;20300;-71
2024/04/25 02:59:03;;;;;;;6.70;1.03;;;;;;;;;;5511786;25;20394;-71
2024/04/25 03:01:29;;;;;;;3.60;1.10;;;;;;;;;;5516206;25;20231;-71
2024/04/25 03:03:55;;;;;;;8.13;0.73;;;;;;;;;;5517139;25;20574;-71
2024/04/25 03:06:25;;;;;;;5.40;0.83;;;;;;;;;;5478065;26;20394;-72
2024/04/25 03:08:50;;;;;;;3.17;1.00;;;;;;;;;;5506042;25;20278;-71
2024/04/25 03:11:16;;;;;;;3.57;0.70;;;;;;;;;;5497295;25;20232;-71
2024/04/25 03:13:41;;;;;;;8.33;1.10;;;;;;;;;;5518588;25;20274;-71
2024/04/25 03:16:07;;;;;;;2.97;1.00;;;;;;;;;;5498574;25;20343;-72
2024/04/25 03:18:33;;;;;;;9.53;1.03;;;;;;;;;;5515407;25;20231;-71
2024/04/25 03:21:05;;;;;;;5.17;1.00;;;;;;;;;;5519537;25;20244;-73
2024/04/25 03:23:35;;;;;;;4.90;0.70;;;;;;;;;;5515917;25;20267;-71
2024/04/25 03:26:04;;;;;;;6.40;1.00;;;;;;;;;;5506170;25;20292;-71
2024/04/25 03:28:31;;;;;;;3.83;1.03;;;;;;;;;;5509762;25;20291;-73
2024/04/25 03:30:57;;;;;;;3.87;1.10;;;;;;;;;;5509976;25;20240;-71
2024/04/25 03:33:24;;;;;;;6.00;0.87;;;;;;;;;;5512065;25;20263;-71
2024/04/25 03:35:50;;;;;;;7.37;1.20;;;;;;;;;;5521073;25;20331;-71
2024/04/25 03:38:15;;;;;;;6.17;1.10;;;;;;;;;;5518891;25;20718;-71
2024/04/25 03:40:41;;;;;;;6.50;1.07;;;;;;;;;;5522529;25;20324;-71
2024/04/25 03:43:07;;;;;;;6.53;1.20;;;;;;;;;;5507219;25;20279;-70
2024/04/25 03:45:33;;;;;;;4.40;1.03;;;;;;;;;;5516778;25;20236;-71
2024/04/25 03:47:58;;;;;;;6.33;1.30;;;;;;;;;;5477894;26;20327;-71
2024/04/25 03:50:25;;;;;;;9.20;1.20;;;;;;;;;;5520274;25;20240;-71
2024/04/25 03:52:50;;;;;;;5.20;1.20;;;;;;;;;;5512251;25;20291;-71
2024/04/25 03:55:16;;;;;;;8.63;1.87;;;;;;;;;;5520588;25;20247;-72
2024/04/25 03:57:42;;;;;;;9.70;1.67;;;;;;;;;;5521481;25;20235;-71
2024/04/25 04:00:08;;;;;;;6.53;1.03;;;;;;;;;;5520706;25;20286;-72
2024/04/25 04:02:34;;;;;;;5.53;1.20;;;;;;;;;;5519427;25;20243;-71
2024/04/25 04:05:00;;;;;;;8.73;1.43;;;;;;;;;;5489053;26;20287;-71
2024/04/25 04:07:27;;;;;;;5.37;1.13;;;;;;;;;;5517873;25;20281;-71
2024/04/25 04:09:53;;;;;;;4.70;1.20;;;;;;;;;;5519883;25;20296;-71
2024/04/25 04:12:18;;;;;;;7.00;1.43;;;;;;;;;;5492125;25;20235;-71
2024/04/25 04:14:43;;;;;;;7.70;1.23;;;;;;;;;;5518706;26;20266;-71
2024/04/25 04:17:09;;;;;;;4.70;1.10;;;;;;;;;;5520057;25;20239;-71
2024/04/25 04:19:34;;;;;;;4.37;1.00;;;;;;;;;;5520896;25;20275;-71
2024/04/25 04:22:00;;;;;;;4.50;1.07;;;;;;;;;;5521920;25;20432;-71
2024/04/25 04:24:25;;;;;;;6.67;1.10;;;;;;;;;;5517866;25;20532;-71
2024/04/25 04:26:50;;;;;;;6.13;1.17;;;;;;;;;;5486920;25;20239;-72
2024/04/25 04:29:16;;;;;;;7.83;1.13;;;;;;;;;;5518996;25;20232;-71
2024/04/25 04:31:42;;;;;;;3.20;0.87;;;;;;;;;;5522079;25;20279;-72
2024/04/25 04:34:07;;;;;;;6.60;1.27;;;;;;;;;;5517953;25;20240;-71
2024/04/25 04:36:34;;;;;;;5.53;1.43;;;;;;;;;;5520115;25;20232;-71
2024/04/25 04:39:09;;;;;;;6.13;1.30;;;;;;;;;;5512002;25;20225;-71
2024/04/25 04:41:34;;;;;;;7.37;1.33;;;;;;;;;;5493446;25;20259;-71
2024/04/25 04:44:00;;;;;;;6.73;1.33;;;;;;;;;;5518222;25;20236;-71
2024/04/25 04:46:26;;;;;;;4.67;1.27;;;;;;;;;;5481895;25;20240;-71
2024/04/25 04:48:51;;;;;;;7.10;1.50;;;;;;;;;;5521043;25;20316;-71
2024/04/25 04:51:20;;;;;;;5.93;1.20;;;;;;;;;;5518703;25;20275;-71
2024/04/25 04:53:46;;;;;;;8.60;1.30;;;;;;;;;;5511051;26;20629;-71
2024/04/25 04:56:12;;;;;;;7.30;1.40;;;;;;;;;;5516678;25;20386;-71
2024/04/25 04:58:38;;;;;;;8.70;1.70;;;;;;;;;;5516176;25;20253;-71
2024/04/25 05:01:04;;;;;;;11.60;2.17;;;;;;;;;;5518977;26;20716;-71
2024/04/25 05:03:29;;;;;;;9.60;2.00;;;;;;;;;;5519137;25;20224;-71
2024/04/25 05:05:55;;;;;;;8.57;1.57;;;;;;;;;;5514932;25;20601;-71
2024/04/25 05:08:21;;;;;;;8.67;1.83;;;;;;;;;;5520225;25;20255;-71
2024/04/25 05:10:46;;;;;;;6.83;1.00;;;;;;;;;;5486425;26;20255;-71
2024/04/25 05:13:12;;;;;;;6.93;1.60;;;;;;;;;;5520065;25;20228;-71
2024/04/25 05:15:37;;;;;;;5.10;1.53;;;;;;;;;;5504525;26;20267;-70
2024/04/25 05:18:03;;;;;;;7.83;1.40;;;;;;;;;;5519472;25;20239;-71
2024/04/25 05:20:32;;;;;;;4.90;1.27;;;;;;;;;;5517034;25;20236;-71
2024/04/25 05:22:58;;;;;;;9.57;1.50;;;;;;;;;;5518928;25;20265;-70
2024/04/25 05:25:24;;;;;;;7.40;1.40;;;;;;;;;;5480709;26;20595;-71
2024/04/25 05:27:51;;;;;;;5.17;1.40;;;;;;;;;;5516348;26;20786;-70
2024/04/25 05:30:18;;;;;;;3.30;1.10;;;;;;;;;;5519910;25;20235;-70
2024/04/25 05:32:43;;;;;;;7.00;1.80;;;;;;;;;;5509475;25;20253;-71
2024/04/25 05:35:09;;;;;;;3.30;1.20;;;;;;;;;;5521467;25;20258;-70
2024/04/25 05:37:34;;;;;;;6.53;1.07;;;;;;;;;;5514771;25;20342;-71
2024/04/25 05:39:59;;;;;;;3.37;1.10;;;;;;;;;;5509395;25;20579;-71
2024/04/25 05:42:25;;;;;;;8.13;1.60;;;;;;;;;;5516736;25;20726;-72
2024/04/25 05:44:50;;;;;;;6.37;1.30;;;;;;;;;;5516142;25;20368;-71
2024/04/25 05:47:18;;;;;;;6.03;1.90;;;;;;;;;;5517343;25;20236;-71
2024/04/25 05:49:45;;;;;;;4.33;0.90;;;;;;;;;;5516473;25;20389;-72
2024/04/25 05:52:11;;;;;;;3.90;1.20;;;;;;;;;;5515235;25;20716;-71
2024/04/25 05:54:36;;;;;;;8.80;1.40;;;;;;;;;;5519283;25;20285;-71
2024/04/25 05:57:02;;;;;;;8.33;1.20;;;;;;;;;;5501820;26;20287;-71
2024/04/25 05:59:27;;;;;;;4.27;1.10;;;;;;;;;;5518520;25;20566;-74
2024/04/25 06:01:53;;;;;;;6.00;1.03;;;;;;;;;;5519704;25;20232;-72
2024/04/25 06:04:19;;;;;;;6.10;1.60;;;;;;;;;;5518666;25;20239;-72
2024/04/25 06:06:45;;;;;;;5.87;1.50;;;;;;;;;;5519373;25;20243;-73
2024/04/25 06:09:11;;;;;;;4.90;1.73;;;;;;;;;;5516583;25;20748;-73
2024/04/25 06:11:36;;;;;;;7.55;1.60;;;;;;;;;;5501309;25;20232;-73
2024/04/25 06:14:02;;;;;;;10.73;1.87;;;;;;;;;;5518828;25;20335;-72
2024/04/25 06:16:27;;;;;;;10.47;3.33;;;;;;;;;;5518542;25;20364;-72
2024/04/25 06:18:53;;;;;;;10.10;1.83;;;;;;;;;;5519946;25;20247;-72
2024/04/25 06:21:19;;;;;;;5.93;1.57;;;;;;;;;;5514481;25;20262;-72
2024/04/25 06:23:44;;;;;;;14.30;2.57;;;;;;;;;;5516603;25;20239;-72
2024/04/25 06:26:09;;;;;;;8.90;2.03;;;;;;;;;;5516017;25;20581;-72
2024/04/25 06:28:35;;;;;;;8.23;1.90;;;;;;;;;;5518665;25;20871;-72
2024/04/25 06:31:00;;;;;;;10.70;2.13;;;;;;;;;;5510384;25;20335;-72
2024/04/25 06:33:26;;;;;;;6.70;1.88;;;;;;;;;;5509670;25;20232;-72
2024/04/25 06:35:52;;;;;;;10.82;2.38;;;;;;;;;;5484008;26;20369;-72
2024/04/25 06:38:18;;;;;;;9.50;1.88;;;;;;;;;;5515738;25;20258;-72
2024/04/25 06:40:45;;;;;;;12.90;1.85;;;;;;;;;;5516020;25;20346;-72
2024/04/25 06:43:11;;;;;;;7.68;2.42;;;;;;;;;;5519660;25;20262;-73
2024/04/25 06:45:39;;;;;;;9.18;1.85;;;;;;;;;;5468218;25;20309;-72
2024/04/25 06:48:11;;;;;;;8.50;2.13;;;;;;;;;;5517743;25;20737;-74
2024/04/25 06:50:38;;;;;;;10.20;2.33;;;;;;;;;;5521040;25;20232;-72
2024/04/25 06:53:04;;;;;;;9.05;2.33;;;;;;;;;;5523371;25;20288;-72
2024/04/25 06:55:30;;;;;;;5.40;2.10;;;;;;;;;;5517425;25;20324;-72
2024/04/25 06:57:55;;;;;;;10.82;2.20;;;;;;;;;;5509037;25;20235;-72
2024/04/25 07:00:21;;;;;;;5.18;1.90;;;;;;;;;;5527000;25;20531;-72
2024/04/25 07:02:46;;;;;;;9.63;2.20;;;;;;;;;;5475948;26;20290;-71
2024/04/25 07:05:12;;;;;;;8.68;2.25;;;;;;;;;;5509639;25;20228;-73
2024/04/25 07:07:37;;;;;;;8.23;2.30;;;;;;;;;;5509264;25;20244;-71
2024/04/25 07:10:03;;;;;;;8.20;2.35;;;;;;;;;;5516059;25;20322;-71
2024/04/25 07:12:31;;;;;;;5.00;1.98;;;;;;;;;;5506119;25;20232;-72
2024/04/25 07:14:57;;;;;;;8.63;2.33;;;;;;;;;;5516003;25;20231;-71
2024/04/25 07:17:22;;;;;;;6.53;1.98;;;;;;;;;;5518501;25;20711;-74
2024/04/25 07:19:49;;;;;;;5.40;2.00;;;;;;;;;;5521697;25;20244;-73
2024/04/25 07:22:15;;;;;;;8.70;1.90;;;;;;;;;;5517429;25;20715;-72
2024/04/25 07:24:42;;;;;;;4.40;1.50;;;;;;;;;;5473561;26;20672;-72
2024/04/25 07:27:07;;;;;;;6.90;2.20;;;;;;;;;;5512471;25;20762;-71
2024/04/25 07:29:33;;;;;;;7.07;1.95;;;;;;;;;;5514952;25;20291;-71
2024/04/25 07:31:58;;;;;;;13.73;2.17;;;;;;;;;;5510591;26;20299;-72
2024/04/25 07:34:23;;;;;;;6.43;1.92;;;;;;;;;;5511692;25;20811;-71
2024/04/25 07:36:49;;;;;;;6.00;1.98;;;;;;;;;;5515194;25;20266;-73
2024/04/25 07:39:14;;;;;;;8.02;1.90;;;;;;;;;;5514983;25;20270;-72
2024/04/25 07:41:40;;;;;;;11.48;2.10;;;;;;;;;;5514449;25;20270;-73
2024/04/25 07:44:05;;;;;;;6.43;2.08;;;;;;;;;;5516751;25;20243;-73
2024/04/25 07:46:31;;;;;;;9.35;2.17;;;;;;;;;;5501039;25;20707;-72
2024/04/25 07:48:56;;;;;;;4.85;1.55;;;;;;;;;;5516914;25;20236;-71
2024/04/25 07:51:22;;;;;;;8.95;1.90;;;;;;;;;;5516059;25;20381;-72
2024/04/25 07:53:47;;;;;;;9.05;1.90;;;;;;;;;;5509919;25;20236;-73
2024/04/25 07:56:13;;;;;;;8.90;2.10;;;;;;;;;;5517335;25;20227;-74
2024/04/25 07:58:38;;;;;;;6.72;2.15;;;;;;;;;;5515168;25;20600;-72
2024/04/25 08:01:04;;;;;;;10.50;1.80;;;;;;;;;;5515192;25;20236;-72
2024/04/25 08:03:29;;;;;;;8.52;1.63;;;;;;;;;;5510060;25;20232;-74
2024/04/25 08:05:55;;;;;;;7.53;1.83;;;;;;;;;;5517003;25;20240;-73
2024/04/25 08:08:20;;;;;;;9.02;2.60;;;;;;;;;;5518146;25;20236;-71
2024/04/25 08:10:48;;;;;;;8.18;1.48;;;;;;;;;;5530807;25;20244;-73
2024/04/25 08:13:16;;;;;;;9.43;1.65;;;;;;;;;;5474069;26;20296;-73
2024/04/25 08:15:43;;;;;;;4.85;1.77;;;;;;;;;;5514837;25;20252;-71
2024/04/25 08:18:09;;;;;;;6.60;2.00;;;;;;;;;;5521144;25;20231;-73
2024/04/25 08:20:35;;;;;;;7.15;1.80;;;;;;;;;;5489189;26;20338;-72
2024/04/25 08:23:00;;;;;;;9.13;2.03;;;;;;;;;;5521609;25;20275;-73
2024/04/25 08:25:26;;;;;;;6.97;1.60;;;;;;;;;;5517215;25;20687;-73
2024/04/25 08:27:53;;;;;;;6.75;1.88;;;;;;;;;;5518113;25;20224;-74
2024/04/25 08:30:19;;;;;;;8.73;1.67;;;;;;;;;;5466577;26;20324;-72
2024/04/25 08:32:45;;;;;;;6.75;1.70;;;;;;;;;;5527288;25;20695;-73
2024/04/25 08:35:10;;;;;;;8.93;1.80;;;;;;;;;;5521248;25;20316;-72
2024/04/25 08:37:36;;;;;;;7.90;1.67;;;;;;;;;;5489705;26;20240;-73
2024/04/25 08:40:03;;;;;;;7.70;1.80;;;;;;;;;;5518153;25;20235;-73
2024/04/25 08:42:30;;;;;;;6.90;1.45;;;;;;;;;;5508103;25;20259;-73
2024/04/25 08:44:56;;;;;;;7.82;1.83;;;;;;;;;;5523707;25;20304;-74
2024/04/25 08:47:22;;;;;;;7.75;1.50;;;;;;;;;;5519496;25;20664;-69
2024/04/25 08:49:49;;;;;;;3.15;1.25;;;;;;;;;;5521829;25;20615;-73
2024/04/25 08:52:17;;;;;;;5.50;1.45;;;;;;;;;;5520998;25;20247;-72
2024/04/25 08:54:45;;;;;;;6.55;1.98;;;;;;;;;;5515944;25;20243;-72
2024/04/25 08:57:11;;;;;;;7.07;1.95;;;;;;;;;;5531834;25;20288;-73
2024/04/25 08:59:37;;;;;;;11.95;1.80;;;;;;;;;;5524102;25;20409;-74
2024/04/25 09:02:04;;;;;;;6.93;1.67;;;;;;;;;;5519007;25;21201;-74
2024/04/25 09:04:30;;;;;;;6.93;1.38;;;;;;;;;;5521470;25;20626;-73
2024/04/25 09:06:58;;;;;;;8.00;1.55;;;;;;;;;;5517132;25;20287;-72
2024/04/25 09:09:26;;;;;;;8.68;1.77;;;;;;;;;;5520534;25;20336;-74
2024/04/25 09:11:55;;;;;;;9.35;2.03;;;;;;;;;;5517018;25;20248;-73
2024/04/25 09:14:21;;;;;;;5.43;1.98;;;;;;;;;;5474900;26;20283;-74
2024/04/25 09:16:46;;;;;;;5.75;1.67;;;;;;;;;;5518679;25;20352;-75
2024/04/25 09:19:12;;;;;;;9.25;1.92;;;;;;;;;;5514152;25;20537;-73
2024/04/25 09:21:38;;;;;;;5.50;1.73;;;;;;;;;;5517295;25;20235;-73
2024/04/25 09:24:06;;;;;;;5.93;1.50;;;;;;;;;;5515422;25;20283;-73
2024/04/25 09:26:33;;;;;;;7.22;1.48;;;;;;;;;;5519025;25;20242;-73
2024/04/25 09:28:59;;;;;;;4.88;1.50;;;;;;;;;;5518346;25;20600;-73
2024/04/25 09:31:25;;;;;;;8.15;1.42;;;;;;;;;;5502835;25;20248;-73
2024/04/25 09:33:56;;;;;;;9.32;1.65;;;;;;;;;;5519954;25;20320;-73
2024/04/25 09:36:22;;;;;;;5.95;1.40;;;;;;;;;;5519028;25;20708;-73
2024/04/25 09:38:47;;;;;;;6.10;1.40;;;;;;;;;;5518950;25;20286;-72
2024/04/25 09:41:13;;;;;;;6.68;1.65;;;;;;;;;;5519658;25;20642;-72
2024/04/25 09:43:39;;;;;;;6.00;1.50;;;;;;;;;;5517916;25;20236;-73
2024/04/25 09:46:12;;;;;;;9.23;1.50;;;;;;;;;;5519329;25;20231;-73
2024/04/25 09:48:41;;;;;;;7.05;1.70;;;;;;;;;;5518074;25;20262;-75
2024/04/25 09:51:25;;;;;;;4.80;1.15;;;;;;;;;;5522427;25;20281;-74
2024/04/25 09:54:06;;;;;;;9.15;1.58;;;;;;;;;;5520473;25;20405;-73
2024/04/25 09:56:34;;;;;;;6.75;1.42;;;;;;;;;;5505577;25;20243;-73
2024/04/25 09:59:28;;;;;;;4.60;1.45;;;;;;;;;;5520536;25;20594;-75
2024/04/25 10:01:56;;;;;;;6.97;1.10;;;;;;;;;;5500664;25;20322;-74
2024/04/25 10:04:24;;;;;;;7.90;1.02;;;;;;;;;;5528633;25;20704;-72
2024/04/25 10:06:50;;;;;;;7.13;1.35;;;;;;;;;;5510709;25;20286;-72
2024/04/25 10:09:16;;;;;;;7.82;1.35;;;;;;;;;;5505504;25;20298;-73
2024/04/25 10:11:47;;;;;;;7.85;1.90;;;;;;;;;;5514219;25;20269;-73
2024/04/25 10:14:23;;;;;;;8.68;1.90;;;;;;;;;;5496756;25;20236;-72
2024/04/25 10:16:48;;;;;;;8.98;2.20;;;;;;;;;;5513772;25;20235;-73
2024/04/25 10:19:14;;;;;;;5.90;1.60;;;;;;;;;;5470023;26;20513;-73
2024/04/25 10:21:48;;;;;;;5.15;2.00;;;;;;;;;;5513884;25;20279;-73
2024/04/25 10:24:14;;;;;;;6.00;1.73;;;;;;;;;;5516872;25;20274;-72
2024/04/25 10:26:46;;;;;;;5.72;1.60;;;;;;;;;;5515535;25;20343;-72
2024/04/25 10:29:12;;;;;;;7.10;1.67;;;;;;;;;;5504533;25;20612;-70
2024/04/25 10:31:39;;;;;;;9.27;1.63;;;;;;;;;;5511661;25;20259;-73
2024/04/25 10:34:05;;;;;;;5.80;1.73;;;;;;;;;;5500772;25;20248;-71
2024/04/25 10:36:32;;;;;;;9.25;2.30;;;;;;;;;;5529330;25;20307;-71
2024/04/25 10:38:58;;;;;;;7.07;1.58;;;;;;;;;;5531907;25;20967;-71
2024/04/25 10:41:40;;;;;;;7.05;2.00;;;;;;;;;;5515638;25;20250;-72
2024/04/25 10:44:08;;;;;;;8.15;2.00;;;;;;;;;;5499110;25;20387;-71
2024/04/25 10:46:35;;;;;;;9.50;2.00;;;;;;;;;;5536513;25;20267;-72
2024/04/25 10:49:01;;;;;;;6.07;1.60;;;;;;;;;;5514999;25;20247;-73
2024/04/25 10:51:27;;;;;;;9.43;2.00;;;;;;;;;;5516105;25;20282;-72
2024/04/25 10:53:54;;;;;;;9.40;2.22;;;;;;;;;;5510951;25;20575;-72
2024/04/25 10:56:20;;;;;;;10.25;2.03;;;;;;;;;;5515780;25;20239;-73
2024/04/25 10:58:51;;;;;;;3.70;1.20;;;;;;;;;;5513245;25;20270;-73
2024/04/25 11:01:27;;;;;;;3.33;1.17;;;;;;;;;;5513334;26;20273;-72
2024/04/25 11:03:56;;;;;;;8.70;1.67;;;;;;;;;;5505935;25;20234;-72
2024/04/25 11:06:24;;;;;;;5.10;1.45;;;;;;;;;;5514054;25;20651;-73
2024/04/25 11:08:50;;;;;;;4.47;1.30;;;;;;;;;;5517719;25;20286;-72
2024/04/25 11:11:15;;;;;;;3.70;1.75;;;;;;;;;;5515109;25;20372;-72
2024/04/25 11:13:41;;;;;;;3.15;1.50;;;;;;;;;;5510226;25;20255;-74
2024/04/25 11:16:07;;;;;;;3.38;1.30;;;;;;;;;;5515778;25;20343;-72
2024/04/25 11:18:34;;;;;;;6.78;1.38;;;;;;;;;;5501456;25;20719;-72
2024/04/25 11:21:01;;;;;;;5.75;2.00;;;;;;;;;;5497373;25;20282;-72
2024/04/25 11:23:30;;;;;;;4.60;2.00;;;;;;;;;;5516801;25;20573;-72
2024/04/25 11:25:56;;;;;;;7.40;1.40;;;;;;;;;;5514372;25;20786;-73
2024/04/25 11:28:21;;;;;;;5.32;1.70;;;;;;;;;;5517493;25;20228;-73
2024/04/25 11:30:47;;;;;;;5.07;1.67;;;;;;;;;;5470115;26;20380;-73
2024/04/25 11:33:12;;;;;;;3.33;1.10;;;;;;;;;;5516088;25;20273;-72
2024/04/25 11:35:43;;;;;;;2.88;1.15;;;;;;;;;;5515614;25;20719;-72
2024/04/25 11:38:13;;;;;;;3.30;1.00;;;;;;;;;;5510362;25;20263;-72
2024/04/25 11:40:40;;;;;;;6.25;1.25;;;;;;;;;;5514070;25;21917;-72
2024/04/25 11:43:06;;;;;;;4.45;0.88;;;;;;;;;;5514798;25;20239;-72
2024/04/25 11:45:32;;;;;;;4.53;1.08;;;;;;;;;;5516831;25;20262;-72
2024/04/25 11:47:57;;;;;;;2.55;1.10;;;;;;;;;;5475400;25;20339;-72
2024/04/25 11:50:23;;;;;;;5.70;1.40;;;;;;;;;;5506413;25;20807;-72
2024/04/25 11:52:48;;;;;;;5.55;1.80;;;;;;;;;;5515553;25;20290;-72
2024/04/25 11:55:14;;;;;;;4.63;1.45;;;;;;;;;;5518311;25;20271;-72
2024/04/25 11:57:39;;;;;;;6.43;1.70;;;;;;;;;;5497107;26;20378;-72
2024/04/25 12:00:05;;;;;;;4.10;1.58;;;;;;;;;;5520334;25;20278;-72
2024/04/25 12:02:30;;;;;;;5.13;1.83;;;;;;;;;;5521328;25;20270;-72
2024/04/25 12:04:56;;;;;;;5.05;1.88;;;;;;;;;;5517296;25;20251;-72
2024/04/25 12:07:21;;;;;;;8.55;2.58;;;;;;;;;;5498886;25;20235;-72
2024/04/25 12:09:47;;;;;;;6.78;2.08;;;;;;;;;;5509453;25;20261;-72
2024/04/25 12:12:12;;;;;;;6.88;2.42;;;;;;;;;;5518055;25;20867;-73
2024/04/25 12:14:38;;;;;;;7.70;2.05;;;;;;;;;;5481102;25;20262;-72
2024/04/25 12:17:05;;;;;;;4.95;2.10;;;;;;;;;;5515462;25;20271;-72
2024/04/25 12:19:32;;;;;;;7.13;2.00;;;;;;;;;;5521516;25;20574;-73
2024/04/25 12:21:58;;;;;;;4.30;2.03;;;;;;;;;;5523036;25;20235;-73
2024/04/25 12:24:23;;;;;;;4.18;2.00;;;;;;;;;;5548999;25;20236;-73
2024/04/25 12:26:49;;;;;;;7.65;2.38;;;;;;;;;;5485116;26;20266;-72
2024/04/25 12:29:14;;;;;;;8.35;2.38;;;;;;;;;;5520067;25;20952;-73
2024/04/25 12:31:39;;;;;;;4.55;2.55;;;;;;;;;;5504727;25;20240;-73
2024/04/25 12:34:05;;;;;;;5.90;2.30;;;;;;;;;;5520195;25;20707;-73
2024/04/25 12:36:30;;;;;;;5.63;2.28;;;;;;;;;;5519737;25;20593;-72
2024/04/25 12:38:56;;;;;;;3.78;2.20;;;;;;;;;;5509475;25;20291;-73
2024/04/25 12:41:21;;;;;;;4.43;1.25;;;;;;;;;;5529564;25;20285;-75
2024/04/25 12:43:48;;;;;;;3.92;1.02;;;;;;;;;;5493725;25;20240;-75
2024/04/25 12:46:14;;;;;;;3.72;1.02;;;;;;;;;;5474703;26;20635;-73
2024/04/25 12:48:39;;;;;;;4.47;1.30;;;;;;;;;;5520917;25;20235;-74
2024/04/25 12:51:05;;;;;;;4.88;1.27;;;;;;;;;;5478938;26;20256;-73
2024/04/25 12:53:30;;;;;;;5.38;1.10;;;;;;;;;;5511609;25;20235;-73
2024/04/25 12:55:57;;;;;;;5.50;1.52;;;;;;;;;;5519187;25;20236;-74
2024/04/25 12:58:22;;;;;;;4.65;1.38;;;;;;;;;;5517509;25;20348;-73
2024/04/25 13:00:48;;;;;;;5.22;1.20;;;;;;;;;;5520136;25;20247;-73
2024/04/25 13:03:13;;;;;;;5.68;1.23;;;;;;;;;;5520103;25;20320;-73
2024/04/25 13:05:39;;;;;;;3.05;1.40;;;;;;;;;;5515220;25;20343;-74
2024/04/25 13:08:05;;;;;;;5.55;1.35;;;;;;;;;;5518576;25;20286;-73
2024/04/25 13:10:31;;;;;;;3.10;1.45;;;;;;;;;;5517420;25;20240;-72
2024/04/25 13:12:56;;;;;;;3.60;1.50;;;;;;;;;;5521362;25;20231;-74
2024/04/25 13:15:22;;;;;;;5.50;1.83;;;;;;;;;;5494563;25;20396;-72
2024/04/25 13:17:47;;;;;;;7.35;2.30;;;;;;;;;;5514498;25;20236;-74
2024/04/25 13:20:14;;;;;;;4.68;1.60;;;;;;;;;;5520812;25;20284;-72
2024/04/25 13:22:39;;;;;;;4.93;1.70;;;;;;;;;;5517903;25;20394;-72
2024/04/25 13:25:05;;;;;;;5.10;1.50;;;;;;;;;;5517990;25;20733;-72
2024/04/25 13:27:31;;;;;;;5.05;1.38;;;;;;;;;;5519832;25;20232;-75
2024/04/25 13:29:56;;;;;;;7.30;2.05;;;;;;;;;;5516797;25;20236;-73
2024/04/25 13:32:22;;;;;;;6.03;1.98;;;;;;;;;;5514945;25;20750;-73
2024/04/25 13:34:49;;;;;;;4.75;1.95;;;;;;;;;;5517375;25;20243;-73
2024/04/25 13:37:15;;;;;;;7.25;1.65;;;;;;;;;;5538280;25;20234;-72
2024/04/25 13:39:42;;;;;;;7.47;1.98;;;;;;;;;;5525706;25;20562;-72
2024/04/25 13:42:09;;;;;;;6.40;1.67;;;;;;;;;;5513312;26;20243;-73
2024/04/25 13:44:34;;;;;;;5.28;2.15;;;;;;;;;;5511537;25;20750;-73
2024/04/25 13:47:00;;;;;;;5.10;2.22;;;;;;;;;;5502457;25;20235;-74
2024/04/25 13:49:25;;;;;;;8.73;2.33;;;;;;;;;;5531549;25;20609;-74
2024/04/25 13:51:51;;;;;;;6.15;2.13;;;;;;;;;;5509100;25;20339;-70
2024/04/25 13:54:16;;;;;;;6.05;2.50;;;;;;;;;;5517043;25;20289;-70
2024/04/25 13:56:42;;;;;;;4.97;1.80;;;;;;;;;;5512229;25;20621;-74
2024/04/25 13:59:08;;;;;;;4.18;1.80;;;;;;;;;;5500601;25;20375;-72
2024/04/25 14:01:33;;;;;;;6.47;2.15;;;;;;;;;;5515480;25;20283;-73
2024/04/25 14:03:59;;;;;;;5.97;1.80;;;;;;;;;;5513799;25;20236;-74
2024/04/25 14:06:24;;;;;;;6.13;1.98;;;;;;;;;;5515310;25;20273;-73
2024/04/25 14:08:50;;;;;;;3.15;1.58;;;;;;;;;;5517436;25;20402;-72
2024/04/25 14:11:16;;;;;;;5.03;1.80;;;;;;;;;;5518348;25;20232;-73
2024/04/25 14:13:42;;;;;;;7.20;1.88;;;;;;;;;;5479117;26;20255;-72
2024/04/25 14:16:11;;;;;;;6.93;2.00;;;;;;;;;;5519618;25;20279;-73
2024/04/25 14:18:37;;;;;;;5.05;1.88;;;;;;;;;;5497726;25;20232;-73
2024/04/25 14:21:04;;;;;;;6.28;2.05;;;;;;;;;;5506982;25;20319;-73
2024/04/25 14:23:29;;;;;;;6.18;1.98;;;;;;;;;;5520408;25;20255;-74
2024/04/25 14:28:45;;;;;;;3.72;1.48;;;;;;;;;;5520581;25;20337;-74
2024/04/25 14:31:16;;;;;;;4.22;1.50;;;;;;;;;;5516167;25;20278;-73
2024/04/25 14:33:43;;;;;;;5.10;1.65;;;;;;;;;;5508915;25;20772;-74
2024/04/25 14:36:10;;;;;;;4.45;2.10;;;;;;;;;;5519009;25;20232;-74
2024/04/25 14:38:35;;;;;;;3.15;1.45;;;;;;;;;;5499898;25;20227;-74
2024/04/25 14:41:03;;;;;;;4.45;1.70;;;;;;;;;;5498755;25;20243;-74
2024/04/25 14:43:30;;;;;;;4.10;1.63;;;;;;;;;;5523822;25;20243;-73
2024/04/25 14:45:56;;;;;;;4.80;1.83;;;;;;;;;;5503089;26;20248;-72